createdAt,value
2022-11-29T00:00:38.239Z,100619.03
2022-11-29T00:03:04.683Z,100616.44
2022-11-29T00:05:34.077Z,100619.00
2022-11-29T00:08:00.438Z,100625.81
2022-11-29T00:10:26.796Z,100620.84
2022-11-29T00:12:53.162Z,100629.47
2022-11-29T00:15:19.558Z,100634.84
2022-11-29T00:17:45.943Z,100626.97
2022-11-29T00:20:12.640Z,100632.19
2022-11-29T00:22:39.070Z,100629.34
2022-11-29T00:25:06.375Z,100633.69
2022-11-29T00:27:32.894Z,100629.19
2022-11-29T00:29:59.302Z,100636.72
2022-11-29T00:32:25.728Z,100622.16
2022-11-29T00:34:52.259Z,100627.13
2022-11-29T00:37:18.679Z,100627.13
2022-11-29T00:39:45.116Z,100630.78
2022-11-29T00:42:11.478Z,100632.88
2022-11-29T00:44:37.858Z,100634.44
2022-11-29T00:47:04.242Z,100635.47
2022-11-29T00:49:30.625Z,100633.53
2022-11-29T00:51:57.011Z,100633.31
2022-11-29T00:54:23.360Z,100636.00
2022-11-29T00:56:49.769Z,100635.09
2022-11-29T00:59:16.125Z,100627.06
2022-11-29T01:01:42.533Z,100628.44
2022-11-29T01:04:09.105Z,100635.09
2022-11-29T01:06:35.532Z,100639.13
2022-11-29T01:09:01.932Z,100626.16
2022-11-29T01:11:28.533Z,100636.44
2022-11-29T01:14:08.336Z,100632.50
2022-11-29T01:16:34.902Z,100631.19
2022-11-29T01:19:01.386Z,100632.78
2022-11-29T01:21:28.153Z,100641.53
2022-11-29T01:23:55.168Z,100634.56
2022-11-29T01:26:26.677Z,100639.03
2022-11-29T01:28:54.949Z,100638.28
2022-11-29T01:31:33.069Z,100642.38
2022-11-29T01:34:01.115Z,100646.78
2022-11-29T01:36:27.889Z,100646.56
2022-11-29T01:38:54.301Z,100646.44
2022-11-29T01:41:24.122Z,100651.94
2022-11-29T01:43:58.768Z,100660.47
2022-11-29T01:46:25.998Z,100658.69
2022-11-29T01:48:55.298Z,100656.66
2022-11-29T01:51:21.876Z,100663.25
2022-11-29T01:53:48.440Z,100665.94
2022-11-29T01:56:15.990Z,100671.78
2022-11-29T01:58:43.682Z,100668.25
2022-11-29T02:01:10.403Z,100667.09
2022-11-29T02:03:36.956Z,100667.28
2022-11-29T02:06:04.575Z,100671.94
2022-11-29T02:08:38.812Z,100669.06
2022-11-29T02:11:34.600Z,100669.16
2022-11-29T02:14:14.025Z,100677.28
2022-11-29T02:17:03.890Z,100678.53
2022-11-29T02:20:10.080Z,100672.59
2022-11-29T02:23:07.615Z,100682.03
2022-11-29T02:25:41.464Z,100686.03
2022-11-29T02:28:35.756Z,100686.16
2022-11-29T02:31:30.676Z,100686.28
2022-11-29T02:34:18.154Z,100680.63
2022-11-29T02:36:55.534Z,100688.41
2022-11-29T02:39:39.096Z,100686.13
2022-11-29T02:42:20.486Z,100687.09
2022-11-29T02:45:14.914Z,100683.75
2022-11-29T02:48:00.153Z,100696.53
2022-11-29T02:50:35.108Z,100697.13
2022-11-29T02:53:31.011Z,100697.53
2022-11-29T02:56:07.012Z,100700.28
2022-11-29T02:58:51.221Z,100707.78
2022-11-29T03:01:46.287Z,100701.06
2022-11-29T03:04:23.686Z,100704.41
2022-11-29T03:06:56.934Z,100709.09
2022-11-29T03:09:43.498Z,100712.69
2022-11-29T03:12:21.415Z,100720.19
2022-11-29T03:15:17.086Z,100718.13
2022-11-29T03:18:07.959Z,100728.81
2022-11-29T03:20:34.219Z,100730.22
2022-11-29T03:23:14.970Z,100730.22
2022-11-29T03:25:53.501Z,100733.31
2022-11-29T03:28:29.972Z,100737.19
2022-11-29T03:31:12.905Z,100732.03
2022-11-29T03:33:58.954Z,100734.38
2022-11-29T03:36:40.256Z,100742.38
2022-11-29T03:39:13.326Z,100749.31
2022-11-29T03:41:53.310Z,100742.34
2022-11-29T03:44:27.043Z,100745.72
2022-11-29T03:47:15.333Z,100752.66
2022-11-29T03:49:49.667Z,100751.38
2022-11-29T03:52:54.823Z,100753.97
2022-11-29T03:55:21.107Z,100756.69
2022-11-29T03:58:13.086Z,100750.25
2022-11-29T04:01:09.457Z,100760.91
2022-11-29T04:03:54.555Z,100764.28
2022-11-29T04:06:31.480Z,100759.88
2022-11-29T04:09:32.067Z,100761.72
2022-11-29T04:12:15.991Z,100772.41
2022-11-29T04:14:54.860Z,100759.38
2022-11-29T04:17:36.248Z,100766.19
2022-11-29T04:20:14.067Z,100771.25
2022-11-29T04:22:52.456Z,100769.31
2022-11-29T04:25:40.710Z,100782.34
2022-11-29T04:28:21.985Z,100783.34
2022-11-29T04:31:12.656Z,100776.66
2022-11-29T04:33:47.389Z,100786.84
2022-11-29T04:36:35.745Z,100789.16
2022-11-29T04:39:11.230Z,100785.19
2022-11-29T04:42:08.676Z,100787.50
2022-11-29T04:44:43.504Z,100792.13
2022-11-29T04:47:34.970Z,100788.66
2022-11-29T04:50:58.888Z,100795.63
2022-11-29T04:53:49.328Z,100793.28
2022-11-29T04:56:43.188Z,100800.50
2022-11-29T04:59:20.478Z,100801.41
2022-11-29T05:02:05.643Z,100800.63
2022-11-29T05:04:53.570Z,100805.25
2022-11-29T05:07:31.287Z,100799.84
2022-11-29T05:10:42.121Z,100803.72
2022-11-29T05:13:23.293Z,100802.56
2022-11-29T05:16:07.321Z,100810.44
2022-11-29T05:18:54.472Z,100811.59
2022-11-29T05:21:45.731Z,100808.75
2022-11-29T05:24:24.792Z,100813.28
2022-11-29T05:27:09.072Z,100813.66
2022-11-29T05:29:43.438Z,100818.31
2022-11-29T05:32:32.662Z,100830.28
2022-11-29T05:35:20.821Z,100826.06
2022-11-29T05:38:13.561Z,100827.72
2022-11-29T05:40:49.293Z,100831.81
2022-11-29T05:43:30.446Z,100828.47
2022-11-29T05:46:06.024Z,100835.16
2022-11-29T05:49:01.296Z,100841.13
2022-11-29T05:51:55.894Z,100838.94
2022-11-29T05:54:38.196Z,100841.25
2022-11-29T05:57:12.473Z,100835.47
2022-11-29T05:59:39.521Z,100834.41
2022-11-29T06:02:27.922Z,100846.03
2022-11-29T06:04:57.265Z,100839.59
2022-11-29T06:07:37.610Z,100847.31
2022-11-29T06:10:23.880Z,100846.56
2022-11-29T06:13:04.196Z,100851.97
2022-11-29T06:15:58.648Z,100853.78
2022-11-29T06:18:27.378Z,100858.41
2022-11-29T06:21:06.342Z,100861.50
2022-11-29T06:23:44.913Z,100859.81
2022-11-29T06:26:46.688Z,100857.41
2022-11-29T06:29:33.128Z,100862.28
2022-11-29T06:32:40.126Z,100868.19
2022-11-29T06:35:24.435Z,100874.66
2022-11-29T06:37:52.570Z,100878.13
2022-11-29T06:40:19.007Z,100884.31
2022-11-29T06:42:45.444Z,100888.94
2022-11-29T06:45:15.285Z,100892.72
2022-11-29T06:48:17.049Z,100887.69
2022-11-29T06:51:07.340Z,100900.16
2022-11-29T06:53:40.984Z,100911.28
2022-11-29T06:56:41.664Z,100914.22
2022-11-29T06:59:17.948Z,100911.53
2022-11-29T07:01:49.919Z,100912.53
2022-11-29T07:04:32.347Z,100912.66
2022-11-29T07:06:58.746Z,100922.47
2022-11-29T07:09:33.645Z,100916.72
2022-11-29T07:12:00.382Z,100916.47
2022-11-29T07:14:26.956Z,100920.56
2022-11-29T07:17:01.376Z,100920.81
2022-11-29T07:19:39.757Z,100923.03
2022-11-29T07:22:41.120Z,100938.72
2022-11-29T07:25:31.918Z,100927.47
2022-11-29T07:28:06.948Z,100937.94
2022-11-29T07:30:51.180Z,100942.16
2022-11-29T07:33:22.283Z,100948.06
2022-11-29T07:35:48.548Z,100949.34
2022-11-29T07:38:31.662Z,100950.97
2022-11-29T07:41:06.160Z,100953.91
2022-11-29T07:44:02.037Z,100950.91
2022-11-29T07:46:29.074Z,100955.63
2022-11-29T07:48:55.557Z,100954.69
2022-11-29T07:51:21.928Z,100952.91
2022-11-29T07:53:48.353Z,100960.25
2022-11-29T07:56:16.220Z,100955.38
2022-11-29T07:58:42.842Z,100963.38
2022-11-29T08:01:09.257Z,100957.31
2022-11-29T08:03:35.737Z,100958.31
2022-11-29T08:06:02.809Z,100960.56
2022-11-29T08:08:29.293Z,100966.88
2022-11-29T08:10:55.730Z,100968.00
2022-11-29T08:13:22.140Z,100964.13
2022-11-29T08:15:48.751Z,100967.25
2022-11-29T08:18:15.678Z,100973.47
2022-11-29T08:20:42.647Z,100975.44
2022-11-29T08:23:11.283Z,100969.03
2022-11-29T08:25:37.675Z,100974.09
2022-11-29T08:28:04.568Z,100978.75
2022-11-29T08:30:30.929Z,100982.22
2022-11-29T08:32:57.321Z,100975.03
2022-11-29T08:35:24.578Z,100978.13
2022-11-29T08:37:51.000Z,100978.50
2022-11-29T08:40:18.014Z,100985.06
2022-11-29T08:42:44.403Z,100987.19
2022-11-29T08:45:11.332Z,100983.03
2022-11-29T08:47:38.341Z,100991.53
2022-11-29T08:50:05.943Z,100992.38
2022-11-29T08:52:55.327Z,100989.53
2022-11-29T08:55:23.263Z,100996.88
2022-11-29T08:57:51.094Z,101000.09
2022-11-29T09:00:18.717Z,101003.88
2022-11-29T09:02:45.110Z,101008.25
2022-11-29T09:05:11.662Z,100998.16
2022-11-29T09:07:38.551Z,100997.22
2022-11-29T09:10:08.127Z,101004.34
2022-11-29T09:12:38.801Z,101010.75
2022-11-29T09:15:07.016Z,101014.03
2022-11-29T09:17:33.448Z,101011.44
2022-11-29T09:19:59.905Z,101014.56
2022-11-29T09:22:26.264Z,101017.94
2022-11-29T09:24:52.765Z,101019.00
2022-11-29T09:27:19.220Z,101023.84
2022-11-29T09:29:45.616Z,101028.53
2022-11-29T09:32:11.985Z,101038.59
2022-11-29T09:34:38.361Z,101035.50
2022-11-29T09:37:05.409Z,101035.75
2022-11-29T09:39:31.811Z,101036.16
2022-11-29T09:42:47.852Z,101037.94
2022-11-29T09:45:19.747Z,101046.59
2022-11-29T09:48:19.715Z,101053.72
2022-11-29T09:50:59.336Z,101049.69
2022-11-29T09:53:43.911Z,101049.44
2022-11-29T09:56:25.698Z,101052.69
2022-11-29T09:58:59.212Z,101058.22
2022-11-29T10:01:32.512Z,101055.34
2022-11-29T10:04:03.999Z,101061.97
2022-11-29T10:06:39.979Z,101060.16
2022-11-29T10:09:33.907Z,101051.50
2022-11-29T10:12:16.360Z,101053.53
2022-11-29T10:14:59.264Z,101051.00
2022-11-29T10:17:37.731Z,101049.44
2022-11-29T10:20:15.638Z,101051.63
2022-11-29T10:22:53.344Z,101062.00
2022-11-29T10:25:36.077Z,101062.13
2022-11-29T10:28:04.428Z,101056.56
2022-11-29T10:30:33.876Z,101051.06
2022-11-29T10:33:00.789Z,101052.59
2022-11-29T10:35:27.334Z,101049.00
2022-11-29T10:38:22.703Z,101054.63
2022-11-29T10:40:46.911Z,101050.88
2022-11-29T10:43:13.321Z,101061.84
2022-11-29T10:45:50.848Z,101062.19
2022-11-29T10:48:19.178Z,101067.66
2022-11-29T10:50:48.401Z,101064.44
2022-11-29T10:53:20.537Z,101060.94
2022-11-29T10:55:51.221Z,101065.50
2022-11-29T10:58:24.726Z,101057.03
2022-11-29T11:01:01.612Z,101057.94
2022-11-29T11:03:40.082Z,101067.91
2022-11-29T11:06:16.190Z,101067.75
2022-11-29T11:08:52.167Z,101067.81
2022-11-29T11:11:32.067Z,101064.22
2022-11-29T11:14:18.048Z,101061.47
2022-11-29T11:16:44.463Z,101060.81
2022-11-29T11:19:31.811Z,101059.28
2022-11-29T11:22:00.382Z,101054.50
2022-11-29T11:24:40.600Z,101060.41
2022-11-29T11:27:07.289Z,101056.44
2022-11-29T11:29:38.025Z,101056.06
2022-11-29T11:32:05.382Z,101055.44
2022-11-29T11:34:34.443Z,101059.00
2022-11-29T11:37:20.712Z,101067.78
2022-11-29T11:39:50.078Z,101069.81
2022-11-29T11:42:37.822Z,101070.31
2022-11-29T11:45:06.790Z,101071.81
2022-11-29T11:47:36.478Z,101066.28
2022-11-29T11:50:03.340Z,101063.69
2022-11-29T11:52:50.472Z,101074.59
2022-11-29T11:55:34.202Z,101073.16
2022-11-29T11:58:13.692Z,101071.22
2022-11-29T12:01:05.535Z,101074.72
2022-11-29T12:03:50.954Z,101073.97
2022-11-29T12:06:44.042Z,101078.06
2022-11-29T12:09:36.538Z,101079.94
2022-11-29T12:12:22.647Z,101074.22
2022-11-29T12:15:01.997Z,101076.84
2022-11-29T12:17:37.184Z,101073.06
2022-11-29T12:20:25.511Z,101080.81
2022-11-29T12:23:10.274Z,101086.88
2022-11-29T12:25:47.139Z,101090.22
2022-11-29T12:28:20.011Z,101094.53
2022-11-29T12:31:03.433Z,101089.75
2022-11-29T12:33:37.086Z,101099.06
2022-11-29T12:36:24.741Z,101097.25
2022-11-29T12:39:13.137Z,101104.69
2022-11-29T12:41:54.337Z,101097.50
2022-11-29T12:44:24.590Z,101108.88
2022-11-29T12:47:39.638Z,101103.72
2022-11-29T12:50:21.918Z,101113.41
2022-11-29T12:52:54.375Z,101109.97
2022-11-29T12:55:53.403Z,101112.13
2022-11-29T12:58:33.506Z,101116.84
2022-11-29T13:01:30.930Z,101120.44
2022-11-29T13:04:14.957Z,101119.44
2022-11-29T13:06:48.404Z,101128.50
2022-11-29T13:09:42.185Z,101134.16
2022-11-29T13:12:33.632Z,101131.94
2022-11-29T13:15:05.204Z,101134.03
2022-11-29T13:17:55.922Z,101133.50
2022-11-29T13:20:34.398Z,101143.38
2022-11-29T13:23:45.809Z,101137.88
2022-11-29T13:26:17.545Z,101138.66
2022-11-29T13:28:46.287Z,101137.38
2022-11-29T13:31:16.163Z,101133.78
2022-11-29T13:33:58.065Z,101137.44
2022-11-29T13:36:42.619Z,101136.66
2022-11-29T13:39:37.003Z,101139.50
2022-11-29T13:42:32.587Z,101133.28
2022-11-29T13:45:24.448Z,101143.84
2022-11-29T13:48:01.215Z,101136.19
2022-11-29T13:50:44.583Z,101138.94
2022-11-29T13:53:17.019Z,101136.56
2022-11-29T13:56:03.886Z,101148.00
2022-11-29T13:58:39.590Z,101144.38
2022-11-29T14:01:14.338Z,101152.47
2022-11-29T14:03:42.626Z,101145.22
2022-11-29T14:06:35.935Z,101160.28
2022-11-29T14:09:25.548Z,101151.88
2022-11-29T14:12:19.931Z,101151.06
2022-11-29T14:14:53.953Z,101160.28
2022-11-29T14:17:46.526Z,101163.34
2022-11-29T14:20:28.566Z,101166.75
2022-11-29T14:23:14.541Z,101164.47
2022-11-29T14:25:56.109Z,101166.63
2022-11-29T14:28:22.378Z,101169.13
2022-11-29T14:30:53.544Z,101163.13
2022-11-29T14:33:27.004Z,101160.72
2022-11-29T14:36:04.487Z,101156.50
2022-11-29T14:38:43.938Z,101173.94
2022-11-29T14:41:39.534Z,101167.81
2022-11-29T14:44:25.920Z,101168.66
2022-11-29T14:47:13.092Z,101174.47
2022-11-29T14:49:41.571Z,101173.56
2022-11-29T14:52:13.967Z,101173.31
2022-11-29T14:54:56.382Z,101174.91
2022-11-29T14:57:44.837Z,101181.25
2022-11-29T15:00:14.668Z,101185.56
2022-11-29T15:02:45.205Z,101183.81
2022-11-29T15:05:21.699Z,101180.56
2022-11-29T15:07:57.275Z,101184.78
2022-11-29T15:10:26.997Z,101181.22
2022-11-29T15:12:53.541Z,101186.69
2022-11-29T15:15:32.349Z,101193.25
2022-11-29T15:18:06.143Z,101190.41
2022-11-29T15:20:40.483Z,101195.69
2022-11-29T15:23:13.295Z,101185.47
2022-11-29T15:25:47.525Z,101188.00
2022-11-29T15:28:23.647Z,101193.63
2022-11-29T15:30:59.922Z,101191.22
2022-11-29T15:33:26.371Z,101189.06
2022-11-29T15:35:55.186Z,101183.00
2022-11-29T15:38:23.345Z,101192.22
2022-11-29T15:40:54.276Z,101193.53
2022-11-29T15:43:30.600Z,101196.72
2022-11-29T15:45:58.108Z,101196.38
2022-11-29T15:48:29.224Z,101198.06
2022-11-29T15:51:02.576Z,101207.84
2022-11-29T15:54:13.123Z,101210.75
2022-11-29T15:56:45.749Z,101206.63
2022-11-29T15:59:34.633Z,101217.78
2022-11-29T16:02:07.679Z,101209.91
2022-11-29T16:04:38.348Z,101209.91
2022-11-29T16:07:07.635Z,101215.13
2022-11-29T16:09:40.995Z,101225.94
2022-11-29T16:12:12.684Z,101223.50
2022-11-29T16:14:52.702Z,101226.91
2022-11-29T16:17:20.808Z,101223.84
2022-11-29T16:19:47.825Z,101222.44
2022-11-29T16:22:22.490Z,101218.44
2022-11-29T16:25:04.970Z,101219.41
2022-11-29T16:27:33.477Z,101227.97
2022-11-29T16:30:00.188Z,101223.44
2022-11-29T16:32:27.851Z,101221.47
2022-11-29T16:34:55.490Z,101225.09
2022-11-29T16:37:26.652Z,101233.41
2022-11-29T16:39:57.806Z,101224.19
2022-11-29T16:42:29.227Z,101219.13
2022-11-29T16:45:01.564Z,101230.91
2022-11-29T16:47:29.915Z,101227.13
2022-11-29T16:50:02.294Z,101236.81
2022-11-29T16:52:31.111Z,101231.84
2022-11-29T16:54:57.572Z,101239.25
2022-11-29T16:57:24.358Z,101243.16
2022-11-29T16:59:50.878Z,101237.94
2022-11-29T17:02:17.321Z,101233.13
2022-11-29T17:04:44.211Z,101234.44
2022-11-29T17:07:26.327Z,101231.84
2022-11-29T17:09:52.896Z,101236.56
2022-11-29T17:12:19.493Z,101230.56
2022-11-29T17:14:46.019Z,101244.53
2022-11-29T17:17:16.789Z,101239.75
2022-11-29T17:19:43.231Z,101242.66
2022-11-29T17:22:09.807Z,101245.44
2022-11-29T17:24:37.408Z,101245.19
2022-11-29T17:27:04.002Z,101247.28
2022-11-29T17:29:30.402Z,101247.00
2022-11-29T17:31:56.854Z,101249.44
2022-11-29T17:34:23.357Z,101244.09
2022-11-29T17:36:49.789Z,101253.94
2022-11-29T17:39:19.878Z,101248.78
2022-11-29T17:41:46.471Z,101261.13
2022-11-29T17:44:12.899Z,101259.91
2022-11-29T17:46:39.338Z,101256.88
2022-11-29T17:49:07.706Z,101253.06
2022-11-29T17:51:52.219Z,101250.47
2022-11-29T17:54:19.364Z,101260.72
2022-11-29T17:56:45.735Z,101258.94
2022-11-29T17:59:12.086Z,101265.59
2022-11-29T18:01:38.510Z,101263.09
2022-11-29T18:04:06.384Z,101265.13
2022-11-29T18:06:38.482Z,101269.13
2022-11-29T18:09:06.291Z,101273.13
2022-11-29T18:11:43.225Z,101274.53
2022-11-29T18:14:15.194Z,101271.59
2022-11-29T18:16:41.728Z,101271.38
2022-11-29T18:19:11.775Z,101269.75
2022-11-29T18:21:38.155Z,101276.53
2022-11-29T18:24:05.947Z,101279.25
2022-11-29T18:26:33.172Z,101275.53
2022-11-29T18:29:00.013Z,101278.06
2022-11-29T18:31:29.118Z,101273.81
2022-11-29T18:33:58.444Z,101275.69
2022-11-29T18:36:29.727Z,101273.78
2022-11-29T18:39:00.932Z,101273.63
2022-11-29T18:41:28.429Z,101275.25
2022-11-29T18:43:57.254Z,101277.50
2022-11-29T18:46:24.733Z,101282.81
2022-11-29T18:48:51.334Z,101279.22
2022-11-29T18:51:19.605Z,101282.94
2022-11-29T18:53:46.452Z,101276.78
2022-11-29T18:56:18.214Z,101275.19
2022-11-29T18:58:47.078Z,101277.66
2022-11-29T19:01:15.541Z,101285.41
2022-11-29T19:03:44.157Z,101282.78
2022-11-29T19:06:13.394Z,101287.88
2022-11-29T19:08:39.923Z,101289.66
2022-11-29T19:11:06.719Z,101292.03
2022-11-29T19:13:33.970Z,101286.50
2022-11-29T19:16:01.150Z,101294.44
2022-11-29T19:18:27.899Z,101291.13
2022-11-29T19:20:54.371Z,101287.28
2022-11-29T19:23:21.281Z,101290.72
2022-11-29T19:25:47.791Z,101297.47
2022-11-29T19:28:14.593Z,101295.72
2022-11-29T19:30:41.063Z,101292.66
2022-11-29T19:33:07.909Z,101298.25
2022-11-29T19:35:34.597Z,101294.94
2022-11-29T19:38:00.958Z,101297.31
2022-11-29T19:40:27.702Z,101300.63
2022-11-29T19:42:54.081Z,101307.88
2022-11-29T19:45:21.738Z,101302.41
2022-11-29T19:47:48.142Z,101314.50
2022-11-29T19:50:14.497Z,101307.22
2022-11-29T19:52:40.850Z,101314.13
2022-11-29T19:55:07.704Z,101307.84
2022-11-29T19:57:34.120Z,101319.25
2022-11-29T20:00:00.613Z,101314.41
2022-11-29T20:02:27.719Z,101317.63
2022-11-29T20:04:54.187Z,101316.06
2022-11-29T20:07:20.569Z,101319.28
2022-11-29T20:09:47.420Z,101320.44
2022-11-29T20:12:14.108Z,101328.13
2022-11-29T20:14:40.458Z,101337.34
2022-11-29T20:17:06.861Z,101334.84
2022-11-29T20:19:34.207Z,101338.56
2022-11-29T20:22:00.621Z,101336.63
2022-11-29T20:24:26.967Z,101344.88
2022-11-29T20:26:53.378Z,101349.44
2022-11-29T20:29:21.400Z,101347.06
2022-11-29T20:31:50.769Z,101348.88
2022-11-29T20:34:18.204Z,101359.66
2022-11-29T20:36:52.069Z,101359.31
2022-11-29T20:40:12.702Z,101356.53
2022-11-29T20:42:53.846Z,101353.22
2022-11-29T20:45:20.527Z,101349.44
2022-11-29T20:47:50.250Z,101354.28
2022-11-29T20:50:30.748Z,101357.63
2022-11-29T20:53:26.596Z,101349.97
2022-11-29T20:55:52.953Z,101354.91
2022-11-29T20:58:19.377Z,101352.69
2022-11-29T21:00:46.202Z,101354.78
2022-11-29T21:03:14.478Z,101351.44
2022-11-29T21:05:40.898Z,101359.31
2022-11-29T21:08:07.351Z,101357.56
2022-11-29T21:10:33.843Z,101360.75
2022-11-29T21:13:00.438Z,101359.13
2022-11-29T21:15:27.350Z,101359.94
2022-11-29T21:17:53.945Z,101355.66
2022-11-29T21:20:25.753Z,101361.69
2022-11-29T21:22:58.920Z,101354.72
2022-11-29T21:25:43.925Z,101352.94
2022-11-29T21:28:14.789Z,101356.69
2022-11-29T21:30:42.278Z,101362.16
2022-11-29T21:33:08.957Z,101350.78
2022-11-29T21:35:39.478Z,101353.16
2022-11-29T21:38:06.881Z,101366.06
2022-11-29T21:40:33.281Z,101360.47
2022-11-29T21:42:59.652Z,101364.28
2022-11-29T21:45:26.055Z,101370.09
2022-11-29T21:47:52.436Z,101366.47
2022-11-29T21:50:18.794Z,101365.25
2022-11-29T21:52:45.252Z,101376.59
2022-11-29T21:55:11.972Z,101374.66
2022-11-29T21:57:38.812Z,101368.72
2022-11-29T22:00:05.865Z,101375.25
2022-11-29T22:02:32.376Z,101375.81
2022-11-29T22:04:58.807Z,101376.31
2022-11-29T22:07:25.245Z,101373.16
2022-11-29T22:09:51.725Z,101377.16
2022-11-29T22:12:34.903Z,101380.34
2022-11-29T22:15:01.691Z,101373.31
2022-11-29T22:17:28.082Z,101366.75
2022-11-29T22:19:54.443Z,101367.63
2022-11-29T22:22:20.824Z,101366.56
2022-11-29T22:24:47.508Z,101368.13
2022-11-29T22:27:14.176Z,101364.34
2022-11-29T22:29:40.530Z,101357.22
2022-11-29T22:32:06.884Z,101357.78
2022-11-29T22:34:33.234Z,101365.50
2022-11-29T22:36:59.580Z,101359.13
2022-11-29T22:39:26.048Z,101357.28
2022-11-29T22:41:54.693Z,101363.69
2022-11-29T22:44:22.403Z,101370.31
2022-11-29T22:46:48.881Z,101365.22
2022-11-29T22:49:15.284Z,101372.00
2022-11-29T22:51:41.674Z,101372.53
2022-11-29T22:54:10.311Z,101380.41
2022-11-29T22:56:38.879Z,101379.03
2022-11-29T22:59:05.604Z,101382.09
2022-11-29T23:01:33.649Z,101387.97
2022-11-29T23:04:02.901Z,101385.91
2022-11-29T23:06:31.836Z,101386.09
2022-11-29T23:09:00.066Z,101381.13
2022-11-29T23:11:28.105Z,101393.03
2022-11-29T23:13:55.285Z,101386.75
2022-11-29T23:16:24.568Z,101393.69
2022-11-29T23:18:51.269Z,101396.66
2022-11-29T23:21:23.258Z,101398.47
2022-11-29T23:23:55.849Z,101387.81
2022-11-29T23:26:25.013Z,101393.84
2022-11-29T23:28:51.727Z,101392.03
2022-11-29T23:31:18.654Z,101385.31
2022-11-29T23:33:45.167Z,101390.31
2022-11-29T23:36:12.436Z,101382.06
2022-11-29T23:38:39.445Z,101380.38
2022-11-29T23:41:06.435Z,101381.09
2022-11-29T23:43:35.141Z,101388.63
2022-11-29T23:46:14.938Z,101383.84
2022-11-29T23:48:41.680Z,101385.56
2022-11-29T23:51:08.081Z,101385.31
2022-11-29T23:53:34.530Z,101392.59
2022-11-29T23:56:05.901Z,101390.88
2022-11-29T23:58:33.028Z,101385.31
